createdAt,value
2018-05-27T00:01:54.679Z,84.40
2018-05-27T00:04:23.736Z,84.25
2018-05-27T00:06:52.003Z,84.33
2018-05-27T00:09:20.264Z,84.48
2018-05-27T00:11:48.538Z,84.66
2018-05-27T00:14:16.792Z,84.88
2018-05-27T00:16:45.051Z,84.70
2018-05-27T00:19:14.390Z,84.76
2018-05-27T00:21:42.634Z,85.22
2018-05-27T00:24:10.899Z,85.32
2018-05-27T00:26:39.159Z,85.64
2018-05-27T00:29:08.169Z,85.61
2018-05-27T00:31:36.428Z,86.27
2018-05-27T00:34:05.445Z,86.60
2018-05-27T00:36:33.712Z,86.58
2018-05-27T00:39:02.734Z,86.32
2018-05-27T00:41:31.018Z,86.29
2018-05-27T00:43:59.266Z,86.23
2018-05-27T00:46:27.529Z,86.43
2018-05-27T00:48:56.556Z,86.48
2018-05-27T00:51:24.827Z,86.55
2018-05-27T00:53:59.841Z,87.04
2018-05-27T00:56:28.104Z,87.14
2018-05-27T00:58:57.148Z,87.21
2018-05-27T01:01:25.381Z,87.00
2018-05-27T01:03:53.644Z,87.32
2018-05-27T01:06:22.660Z,87.98
2018-05-27T01:08:50.925Z,88.41
2018-05-27T01:11:19.176Z,88.26
2018-05-27T01:13:47.459Z,88.62
2018-05-27T01:16:16.494Z,88.65
2018-05-27T01:18:44.768Z,88.79
2018-05-27T01:21:13.017Z,88.76
2018-05-27T01:23:42.057Z,88.63
2018-05-27T01:26:10.309Z,88.72
2018-05-27T01:28:38.579Z,88.95
2018-05-27T01:31:06.829Z,89.09
2018-05-27T01:33:35.882Z,88.79
2018-05-27T01:36:04.135Z,88.69
2018-05-27T01:38:32.391Z,89.15
2018-05-27T01:41:00.642Z,89.42
2018-05-27T01:43:28.894Z,90.23
2018-05-27T01:45:58.662Z,90.50
2018-05-27T01:48:26.918Z,90.66
2018-05-27T01:50:55.938Z,90.45
2018-05-27T01:53:24.198Z,90.46
2018-05-27T01:55:52.449Z,90.19
2018-05-27T01:58:21.475Z,90.25
2018-05-27T02:00:49.724Z,90.11
2018-05-27T02:03:18.746Z,89.85
2018-05-27T02:05:47.013Z,89.84
2018-05-27T02:08:15.262Z,89.79
2018-05-27T02:10:44.282Z,89.59
2018-05-27T02:13:12.535Z,89.19
2018-05-27T02:15:41.559Z,88.73
2018-05-27T02:18:09.806Z,88.94
2018-05-27T02:20:38.822Z,89.26
2018-05-27T02:23:07.078Z,89.73
2018-05-27T02:25:36.110Z,90.06
2018-05-27T02:28:04.361Z,90.24
2018-05-27T02:30:32.626Z,90.85
2018-05-27T02:33:01.638Z,90.73
2018-05-27T02:35:29.988Z,90.56
2018-05-27T02:37:59.004Z,90.81
2018-05-27T02:40:27.267Z,92.10
2018-05-27T02:42:56.290Z,92.41
2018-05-27T02:45:24.558Z,92.12
2018-05-27T02:47:52.820Z,92.09
2018-05-27T02:50:21.078Z,91.92
2018-05-27T02:52:50.115Z,91.79
2018-05-27T02:55:18.369Z,91.73
2018-05-27T02:57:46.629Z,91.43
2018-05-27T03:00:15.653Z,91.08
2018-05-27T03:02:43.916Z,90.64
2018-05-27T03:05:12.172Z,90.42
2018-05-27T03:07:41.203Z,90.34
2018-05-27T03:10:09.457Z,90.50
2018-05-27T03:12:37.712Z,90.77
2018-05-27T03:15:06.749Z,90.66
2018-05-27T03:17:35.010Z,90.63
2018-05-27T03:20:03.270Z,90.46
2018-05-27T03:22:32.356Z,90.25
2018-05-27T03:25:01.387Z,89.95
2018-05-27T03:27:29.642Z,89.92
2018-05-27T03:29:57.898Z,90.10
2018-05-27T03:32:26.925Z,90.46
2018-05-27T03:34:55.185Z,90.52
2018-05-27T03:37:23.438Z,90.60
2018-05-27T03:39:51.709Z,90.66
2018-05-27T03:42:19.959Z,90.69
2018-05-27T03:44:48.223Z,90.42
2018-05-27T03:47:16.470Z,90.62
2018-05-27T03:49:44.737Z,90.42
2018-05-27T03:52:12.998Z,90.24
2018-05-27T03:54:42.029Z,90.73
2018-05-27T03:57:10.290Z,90.89
2018-05-27T03:59:38.550Z,91.21
2018-05-27T04:02:07.565Z,91.54
2018-05-27T04:05:05.276Z,91.63
2018-05-27T04:11:00.865Z,91.24
2018-05-27T04:13:29.145Z,90.94
2018-05-27T04:15:57.406Z,91.04
2018-05-27T04:18:25.645Z,90.98
2018-05-27T04:20:53.911Z,90.10
2018-05-27T04:23:22.170Z,89.40
2018-05-27T04:25:50.426Z,89.03
2018-05-27T04:28:18.702Z,88.65
2018-05-27T04:30:46.948Z,88.27
2018-05-27T04:33:15.980Z,87.74
2018-05-27T04:35:44.238Z,87.77
2018-05-27T04:38:12.490Z,87.40
2018-05-27T04:40:41.520Z,87.42
2018-05-27T04:43:09.765Z,87.17
2018-05-27T04:45:38.785Z,87.16
2018-05-27T04:48:07.032Z,87.16
2018-05-27T04:50:35.300Z,87.06
2018-05-27T04:53:04.306Z,86.62
2018-05-27T04:55:32.569Z,85.92
2018-05-27T04:58:01.587Z,85.58
2018-05-27T05:00:29.850Z,84.70
2018-05-27T05:02:58.865Z,84.42
2018-05-27T05:05:27.124Z,83.08
2018-05-27T05:07:55.370Z,82.51
2018-05-27T05:10:24.393Z,80.34
2018-05-27T05:12:52.645Z,80.35
2018-05-27T05:15:21.681Z,79.73
2018-05-27T05:17:49.929Z,79.47
2018-05-27T05:20:18.180Z,78.18
2018-05-27T05:22:47.203Z,78.98
2018-05-27T05:25:15.461Z,81.36
2018-05-27T05:27:44.534Z,80.57
2018-05-27T05:30:12.739Z,79.91
2018-05-27T05:32:41.762Z,79.12
2018-05-27T05:35:10.017Z,79.49
2018-05-27T05:37:38.282Z,78.35
2018-05-27T05:40:07.297Z,78.26
2018-05-27T05:42:35.563Z,75.19
2018-05-27T05:45:03.814Z,73.92
2018-05-27T05:47:32.839Z,73.81
2018-05-27T05:50:01.097Z,73.88
2018-05-27T05:52:30.117Z,74.52
2018-05-27T05:54:58.365Z,75.59
2018-05-27T05:57:27.394Z,75.54
2018-05-27T05:59:55.641Z,76.48
2018-05-27T06:02:23.901Z,75.78
2018-05-27T06:04:52.921Z,76.26
2018-05-27T06:07:21.181Z,78.99
2018-05-27T06:09:50.199Z,81.08
2018-05-27T06:12:18.465Z,80.93
2018-05-27T06:14:46.722Z,80.11
2018-05-27T06:17:15.742Z,79.14
2018-05-27T06:19:44.015Z,76.80
2018-05-27T06:22:12.874Z,75.81
2018-05-27T06:24:41.893Z,74.93
2018-05-27T06:27:10.149Z,73.96
2018-05-27T06:29:39.183Z,73.70
2018-05-27T06:32:07.453Z,74.03
2018-05-27T06:34:35.698Z,73.62
2018-05-27T06:37:03.965Z,73.44
2018-05-27T06:39:32.992Z,74.51
2018-05-27T06:42:01.241Z,74.02
2018-05-27T06:44:30.261Z,73.48
2018-05-27T06:46:58.523Z,72.87
2018-05-27T06:49:26.785Z,73.10
2018-05-27T06:51:55.800Z,72.50
2018-05-27T06:54:24.060Z,72.32
2018-05-27T06:56:52.310Z,72.24
2018-05-27T06:59:21.319Z,72.58
2018-05-27T07:01:50.335Z,72.68
2018-05-27T07:04:18.592Z,72.47
2018-05-27T07:06:47.614Z,72.26
2018-05-27T07:09:15.892Z,71.37
2018-05-27T07:11:44.146Z,69.97
2018-05-27T07:14:12.403Z,69.28
2018-05-27T07:16:41.425Z,69.63
2018-05-27T07:19:09.682Z,69.60
2018-05-27T07:21:38.711Z,69.25
2018-05-27T07:24:06.972Z,70.18
2018-05-27T07:26:35.229Z,70.33
2018-05-27T07:29:03.484Z,69.12
2018-05-27T07:31:31.744Z,69.05
2018-05-27T07:34:00.004Z,69.81
2018-05-27T07:36:28.264Z,70.37
2018-05-27T07:38:56.520Z,69.99
2018-05-27T07:41:24.792Z,68.80
2018-05-27T07:43:55.915Z,68.25
2018-05-27T07:46:24.941Z,69.47
2018-05-27T07:48:53.200Z,67.76
2018-05-27T07:51:22.226Z,67.24
2018-05-27T07:53:50.472Z,66.98
2018-05-27T07:56:18.753Z,67.24
2018-05-27T07:58:47.010Z,66.68
2018-05-27T08:01:16.033Z,66.95
2018-05-27T08:03:44.277Z,66.06
2018-05-27T08:06:13.328Z,66.40
2018-05-27T08:08:41.591Z,64.94
2018-05-27T08:11:09.838Z,64.78
2018-05-27T08:13:38.101Z,63.64
2018-05-27T08:16:07.129Z,62.08
2018-05-27T08:18:35.395Z,61.46
2018-05-27T08:21:03.646Z,61.93
2018-05-27T08:23:32.674Z,62.54
2018-05-27T08:26:00.931Z,61.10
2018-05-27T08:28:29.189Z,62.06
2018-05-27T08:30:58.255Z,62.87
2018-05-27T08:33:26.517Z,63.43
2018-05-27T08:35:55.533Z,62.87
2018-05-27T08:38:23.791Z,62.08
2018-05-27T08:40:52.049Z,62.00
2018-05-27T08:43:20.301Z,61.77
2018-05-27T08:45:48.561Z,60.42
2018-05-27T08:48:17.601Z,59.99
2018-05-27T08:50:45.849Z,60.49
2018-05-27T08:53:14.109Z,60.45
2018-05-27T08:55:43.141Z,61.45
2018-05-27T08:58:11.389Z,61.79
2018-05-27T09:00:39.650Z,61.06
2018-05-27T09:03:08.674Z,59.57
2018-05-27T09:05:36.933Z,58.34
2018-05-27T09:08:05.944Z,58.47
2018-05-27T09:10:34.196Z,59.97
2018-05-27T09:13:02.449Z,58.78
2018-05-27T09:15:30.703Z,58.84
2018-05-27T09:17:58.954Z,57.27
2018-05-27T09:20:27.201Z,56.74
2018-05-27T09:22:55.480Z,59.38
2018-05-27T09:25:23.729Z,56.33
2018-05-27T09:27:52.753Z,56.12
2018-05-27T09:30:21.027Z,54.91
2018-05-27T09:32:49.317Z,55.31
2018-05-27T09:35:18.295Z,54.96
2018-05-27T09:37:46.541Z,56.61
2018-05-27T09:40:15.567Z,53.01
2018-05-27T09:42:43.831Z,53.50
2018-05-27T09:45:12.906Z,53.87
2018-05-27T09:47:41.107Z,55.52
2018-05-27T09:50:09.366Z,53.68
2018-05-27T09:52:38.378Z,52.29
2018-05-27T09:55:06.855Z,51.11
2018-05-27T09:57:35.101Z,49.36
2018-05-27T10:00:03.378Z,50.69
2018-05-27T10:02:31.608Z,50.77
2018-05-27T10:04:59.872Z,51.45
2018-05-27T10:07:28.129Z,51.48
2018-05-27T10:09:56.382Z,50.80
2018-05-27T10:12:24.633Z,50.62
2018-05-27T10:14:52.876Z,51.77
2018-05-27T10:17:21.141Z,50.40
2018-05-27T10:19:49.404Z,50.06
2018-05-27T10:22:17.662Z,47.21
2018-05-27T10:24:45.915Z,45.89
2018-05-27T10:27:14.177Z,46.01
2018-05-27T10:29:42.423Z,45.46
2018-05-27T10:32:10.687Z,47.47
2018-05-27T10:34:38.937Z,44.39
2018-05-27T10:37:07.949Z,43.76
2018-05-27T10:39:36.206Z,44.11
2018-05-27T10:42:05.233Z,42.96
2018-05-27T10:44:33.481Z,42.95
2018-05-27T10:47:02.508Z,44.82
2018-05-27T10:49:30.752Z,46.68
2018-05-27T10:51:59.777Z,46.28
2018-05-27T10:54:28.066Z,45.51
2018-05-27T10:56:56.316Z,44.78
2018-05-27T10:59:24.574Z,44.11
2018-05-27T11:01:53.588Z,45.38
2018-05-27T11:04:21.843Z,43.69
2018-05-27T11:06:50.866Z,44.32
2018-05-27T11:09:19.112Z,42.47
2018-05-27T11:11:48.133Z,41.19
2018-05-27T11:14:16.390Z,41.34
2018-05-27T11:16:45.439Z,42.76
2018-05-27T11:19:13.683Z,42.43
2018-05-27T11:21:42.140Z,40.36
2018-05-27T11:24:11.149Z,40.84
2018-05-27T11:26:39.401Z,41.78
2018-05-27T11:29:08.426Z,39.85
2018-05-27T11:31:36.678Z,40.52
2018-05-27T11:34:04.934Z,41.32
2018-05-27T11:36:33.953Z,40.39
2018-05-27T11:39:02.213Z,40.23
2018-05-27T11:41:31.232Z,38.78
2018-05-27T11:43:59.495Z,39.72
2018-05-27T11:46:27.743Z,38.55
2018-05-27T11:48:55.997Z,38.35
2018-05-27T11:51:24.256Z,39.05
2018-05-27T11:53:53.276Z,39.34
2018-05-27T11:56:21.529Z,39.88
2018-05-27T11:58:49.788Z,38.85
2018-05-27T12:01:18.035Z,37.17
2018-05-27T12:03:46.295Z,36.27
2018-05-27T12:06:15.314Z,36.33
2018-05-27T12:08:43.568Z,38.21
2018-05-27T12:11:12.597Z,35.34
2018-05-27T12:13:40.848Z,36.03
2018-05-27T12:16:09.864Z,36.11
2018-05-27T12:18:38.113Z,34.98
2018-05-27T12:21:06.369Z,35.29
2018-05-27T12:23:35.387Z,33.11
2018-05-27T12:26:03.640Z,32.79
2018-05-27T12:28:32.662Z,33.41
2018-05-27T12:31:00.919Z,38.03
2018-05-27T12:33:29.932Z,37.70
2018-05-27T12:35:58.199Z,36.06
2018-05-27T12:38:26.450Z,34.12
2018-05-27T12:40:54.705Z,39.85
2018-05-27T12:43:22.950Z,38.38
2018-05-27T12:45:51.212Z,36.13
2018-05-27T12:48:19.460Z,36.65
2018-05-27T12:50:48.486Z,34.58
2018-05-27T12:53:16.742Z,33.83
2018-05-27T12:55:45.761Z,35.81
2018-05-27T12:58:14.360Z,34.13
2018-05-27T13:00:42.616Z,33.80
2018-05-27T13:03:10.865Z,35.61
2018-05-27T13:05:39.894Z,37.07
2018-05-27T13:08:09.300Z,38.91
2018-05-27T13:10:37.549Z,37.99
2018-05-27T13:13:05.815Z,35.77
2018-05-27T13:15:34.829Z,38.04
2018-05-27T13:18:03.097Z,36.86
2018-05-27T13:20:31.340Z,36.52
2018-05-27T13:23:00.373Z,37.49
2018-05-27T13:25:28.631Z,36.88
2018-05-27T13:27:56.885Z,36.28
2018-05-27T13:30:25.909Z,38.15
2018-05-27T13:32:54.166Z,36.41
2018-05-27T13:35:23.179Z,36.28
2018-05-27T13:37:51.438Z,34.29
2018-05-27T13:40:20.489Z,35.46
2018-05-27T13:42:48.833Z,36.50
2018-05-27T13:45:17.162Z,34.45
2018-05-27T13:47:45.469Z,36.53
2018-05-27T13:50:14.490Z,37.38
2018-05-27T13:52:42.772Z,38.52
2018-05-27T13:55:11.048Z,38.37
2018-05-27T13:57:39.295Z,39.29
2018-05-27T14:00:07.546Z,38.23
2018-05-27T14:02:36.578Z,37.80
2018-05-27T14:05:04.832Z,39.57
2018-05-27T14:07:33.846Z,38.90
2018-05-27T14:10:02.104Z,34.83
2018-05-27T14:12:30.357Z,34.36
2018-05-27T14:14:59.381Z,34.74
2018-05-27T14:17:27.641Z,36.42
2018-05-27T14:19:56.661Z,33.76
2018-05-27T14:22:24.915Z,35.21
2018-05-27T14:24:53.953Z,36.09
2018-05-27T14:27:22.206Z,34.08
2018-05-27T14:29:50.472Z,37.08
2018-05-27T14:32:18.737Z,37.09
2018-05-27T14:34:47.765Z,38.92
2018-05-27T14:37:16.020Z,37.32
2018-05-27T14:39:44.268Z,39.20
2018-05-27T14:42:13.289Z,38.74
2018-05-27T14:44:41.553Z,41.91
2018-05-27T14:47:09.803Z,40.95
2018-05-27T14:49:38.067Z,40.79
2018-05-27T14:52:06.315Z,42.87
2018-05-27T14:54:34.570Z,41.13
2018-05-27T14:57:02.836Z,39.19
2018-05-27T14:59:31.085Z,41.53
2018-05-27T15:02:00.113Z,41.64
2018-05-27T15:04:28.368Z,45.02
2018-05-27T15:06:57.402Z,41.91
2018-05-27T15:09:25.652Z,39.82
2018-05-27T15:11:53.910Z,46.12
2018-05-27T15:14:22.929Z,42.51
2018-05-27T15:16:51.185Z,44.19
2018-05-27T15:19:20.204Z,44.57
2018-05-27T15:21:48.469Z,48.98
2018-05-27T15:24:16.720Z,47.88
2018-05-27T15:26:45.737Z,48.98
2018-05-27T15:31:48.536Z,48.72
2018-05-27T15:34:16.793Z,50.43
2018-05-27T15:36:46.411Z,45.71
2018-05-27T15:39:14.671Z,48.38
2018-05-27T15:41:43.693Z,43.46
2018-05-27T15:44:11.941Z,48.83
2018-05-27T15:46:40.970Z,48.34
2018-05-27T15:49:09.229Z,48.14
2018-05-27T15:51:37.486Z,50.63
2018-05-27T15:54:06.547Z,50.72
2018-05-27T15:56:34.809Z,51.73
2018-05-27T15:59:03.071Z,51.99
2018-05-27T16:01:31.351Z,47.92
2018-05-27T16:03:59.597Z,48.51
2018-05-27T16:06:27.862Z,49.78
2018-05-27T16:08:56.895Z,46.87
2018-05-27T16:11:25.152Z,50.40
2018-05-27T16:13:53.409Z,52.08
2018-05-27T16:16:21.685Z,52.76
2018-05-27T16:18:50.704Z,50.49
2018-05-27T16:21:18.959Z,51.77
2018-05-27T16:23:47.224Z,52.11
2018-05-27T16:26:16.239Z,52.13
2018-05-27T16:28:44.503Z,53.07
2018-05-27T16:31:13.524Z,52.57
2018-05-27T16:33:41.777Z,52.38
2018-05-27T16:36:10.038Z,52.72
2018-05-27T16:38:39.059Z,52.61
2018-05-27T16:41:07.320Z,52.96
2018-05-27T16:43:35.581Z,51.57
2018-05-27T16:46:04.598Z,50.88
2018-05-27T16:48:32.867Z,50.43
2018-05-27T16:51:02.845Z,50.98
2018-05-27T16:53:31.098Z,52.52
2018-05-27T16:55:59.539Z,51.60
2018-05-27T16:58:27.821Z,51.49
2018-05-27T17:00:56.078Z,52.48
2018-05-27T17:03:24.411Z,50.74
2018-05-27T17:05:52.671Z,51.24
2018-05-27T17:08:20.947Z,52.46
2018-05-27T17:10:49.232Z,51.94
2018-05-27T17:13:17.528Z,52.49
2018-05-27T17:15:45.853Z,53.22
2018-05-27T17:18:14.238Z,52.46
2018-05-27T17:20:42.642Z,54.57
2018-05-27T17:23:10.984Z,56.21
2018-05-27T17:25:39.278Z,54.66
2018-05-27T17:28:07.557Z,52.83
2018-05-27T17:30:35.828Z,53.79
2018-05-27T17:33:04.137Z,54.82
2018-05-27T17:35:33.195Z,54.01
2018-05-27T17:38:01.454Z,54.52
2018-05-27T17:40:29.737Z,54.00
2018-05-27T17:42:58.036Z,56.91
2018-05-27T17:45:26.359Z,55.14
2018-05-27T17:48:12.931Z,54.98
2018-05-27T17:50:41.313Z,54.87
2018-05-27T17:53:09.571Z,55.45
2018-05-27T17:55:37.880Z,54.87
2018-05-27T17:58:06.180Z,55.43
2018-05-27T18:00:35.229Z,55.58
2018-05-27T18:03:03.516Z,54.35
2018-05-27T18:05:31.806Z,53.98
2018-05-27T18:08:00.111Z,53.90
2018-05-27T18:10:28.420Z,54.39
2018-05-27T18:12:56.704Z,54.44
2018-05-27T18:15:24.992Z,52.14
2018-05-27T18:17:53.264Z,50.58
2018-05-27T18:20:21.550Z,49.90
2018-05-27T18:22:49.835Z,50.97
2018-05-27T18:25:18.133Z,50.07
2018-05-27T18:27:47.188Z,52.59
2018-05-27T18:30:15.458Z,55.11
2018-05-27T18:32:43.745Z,56.84
2018-05-27T18:35:12.114Z,55.26
2018-05-27T18:37:40.386Z,56.74
2018-05-27T18:40:08.638Z,55.80
2018-05-27T18:42:36.957Z,56.77
2018-05-27T18:45:05.221Z,56.72
2018-05-27T18:47:33.529Z,56.18
2018-05-27T18:50:01.816Z,57.52
2018-05-27T18:52:30.839Z,58.38
2018-05-27T18:54:59.100Z,58.03
2018-05-27T18:57:27.380Z,58.59
2018-05-27T18:59:55.680Z,58.09
2018-05-27T19:02:25.140Z,58.23
2018-05-27T19:04:54.183Z,58.27
2018-05-27T19:07:22.468Z,58.60
2018-05-27T19:09:50.781Z,59.84
2018-05-27T19:12:18.994Z,59.52
2018-05-27T19:14:47.251Z,59.46
2018-05-27T19:17:15.535Z,59.97
2018-05-27T19:19:43.770Z,60.24
2018-05-27T19:22:12.841Z,59.82
2018-05-27T19:24:41.223Z,59.69
2018-05-27T19:27:10.680Z,59.99
2018-05-27T19:29:39.073Z,59.88
2018-05-27T19:32:07.326Z,59.81
2018-05-27T19:34:36.356Z,59.85
2018-05-27T19:37:04.643Z,60.31
2018-05-27T19:39:32.936Z,60.70
2018-05-27T19:42:01.269Z,61.35
2018-05-27T19:44:29.514Z,62.16
2018-05-27T19:46:58.533Z,62.66
2018-05-27T19:49:26.797Z,62.84
2018-05-27T19:51:55.226Z,63.61
2018-05-27T19:54:23.482Z,63.94
2018-05-27T19:56:51.741Z,63.41
2018-05-27T19:59:20.049Z,63.98
2018-05-27T20:01:48.438Z,64.29
2018-05-27T20:04:16.685Z,64.27
2018-05-27T20:06:45.163Z,64.51
2018-05-27T20:09:13.406Z,64.92
2018-05-27T20:11:42.422Z,65.06
2018-05-27T20:14:10.689Z,65.37
2018-05-27T20:16:39.048Z,65.29
2018-05-27T20:19:08.173Z,65.86
2018-05-27T20:21:36.554Z,66.09
2018-05-27T20:24:04.832Z,65.80
2018-05-27T20:26:33.093Z,66.02
2018-05-27T20:29:01.346Z,66.29
2018-05-27T20:31:30.469Z,66.46
2018-05-27T20:33:58.718Z,66.90
2018-05-27T20:36:27.737Z,67.31
2018-05-27T20:38:55.991Z,67.63
2018-05-27T20:41:27.128Z,67.69
2018-05-27T20:43:56.150Z,67.70
2018-05-27T20:46:24.407Z,68.13
2018-05-27T20:48:53.423Z,67.85
2018-05-27T20:51:21.669Z,67.94
2018-05-27T20:53:50.851Z,67.86
2018-05-27T20:56:19.118Z,67.56
2018-05-27T20:58:47.381Z,67.92
2018-05-27T21:01:15.626Z,68.32
2018-05-27T21:03:43.898Z,68.70
2018-05-27T21:06:12.157Z,69.33
2018-05-27T21:08:40.485Z,69.59
2018-05-27T21:11:08.743Z,69.75
2018-05-27T21:13:36.988Z,69.85
2018-05-27T21:16:05.275Z,69.09
2018-05-27T21:18:34.505Z,68.90
2018-05-27T21:21:02.757Z,68.17
2018-05-27T21:23:31.007Z,67.82
2018-05-27T21:26:00.043Z,67.22
2018-05-27T21:28:28.364Z,66.99
2018-05-27T21:30:56.633Z,67.19
2018-05-27T21:33:25.648Z,67.74
2018-05-27T21:35:56.138Z,67.97
2018-05-27T21:38:24.392Z,68.23
2018-05-27T21:40:52.642Z,68.78
2018-05-27T21:43:20.885Z,68.22
2018-05-27T21:45:49.917Z,68.30
2018-05-27T21:48:18.169Z,68.52
2018-05-27T21:50:47.185Z,68.47
2018-05-27T21:53:15.438Z,68.50
2018-05-27T21:55:44.465Z,68.86
2018-05-27T21:58:12.712Z,69.21
2018-05-27T22:00:40.997Z,69.83
2018-05-27T22:03:09.251Z,70.29
2018-05-27T22:05:38.265Z,70.65
2018-05-27T22:08:06.521Z,70.49
2018-05-27T22:10:35.549Z,70.51
2018-05-27T22:13:03.792Z,70.36
2018-05-27T22:15:32.809Z,70.44
2018-05-27T22:18:01.062Z,70.45
2018-05-27T22:20:30.079Z,70.57
2018-05-27T22:22:58.334Z,70.06
2018-05-27T22:25:27.351Z,69.78
2018-05-27T22:27:55.614Z,69.46
2018-05-27T22:30:23.855Z,69.59
2018-05-27T22:32:52.109Z,69.71
2018-05-27T22:35:20.362Z,69.75
2018-05-27T22:37:48.622Z,69.91
2018-05-27T22:40:16.876Z,70.29
2018-05-27T22:42:45.899Z,70.32
2018-05-27T22:45:14.153Z,70.39
2018-05-27T22:47:43.168Z,70.60
2018-05-27T22:50:12.324Z,70.85
2018-05-27T22:52:41.351Z,71.24
2018-05-27T22:55:10.181Z,71.40
2018-05-27T22:57:38.549Z,71.81
2018-05-27T23:00:06.930Z,71.63
2018-05-27T23:02:35.283Z,72.30
2018-05-27T23:05:03.638Z,72.29
2018-05-27T23:07:32.003Z,72.27
2018-05-27T23:10:01.293Z,72.47
2018-05-27T23:12:29.564Z,72.45
2018-05-27T23:14:57.823Z,72.52
2018-05-27T23:17:26.096Z,72.74
2018-05-27T23:19:54.336Z,73.36
2018-05-27T23:22:22.580Z,73.85
2018-05-27T23:24:51.605Z,74.98
2018-05-27T23:27:19.854Z,75.73
2018-05-27T23:29:48.889Z,76.44
2018-05-27T23:32:17.133Z,76.66
2018-05-27T23:34:45.397Z,76.32
2018-05-27T23:37:14.410Z,76.34
2018-05-27T23:39:42.664Z,76.22
2018-05-27T23:42:11.685Z,76.49
2018-05-27T23:44:39.940Z,76.74
2018-05-27T23:47:08.949Z,76.98
2018-05-27T23:49:37.201Z,77.11
2018-05-27T23:52:06.218Z,77.13
2018-05-27T23:54:34.477Z,77.16
2018-05-27T23:57:02.724Z,77.58
2018-05-27T23:59:32.494Z,78.25
